Time;durP1;ratioP1;P1;durP2;ratioP2;P2;SDS_P1;SDS_P2;PMS_P1;PMS_P2;Temp;Humidity;BMP_temperature;BMP_pressure;BME280_temperature;BME280_humidity;BME280_pressure;Samples;Min_cycle;Max_cycle;Signal;HPM_P1;HPM_P2
2021/05/29 00:01:48;;;;;;;3.50;2.87;;;13.70;75.00;;;;;;4995468;28;20569;-81
2021/05/29 00:04:13;;;;;;;3.40;2.77;;;13.60;75.50;;;;;;4994950;28;20252;-81
2021/05/29 00:06:39;;;;;;;3.87;2.73;;;13.60;76.00;;;;;;4978742;28;20597;-81
2021/05/29 00:09:06;;;;;;;4.33;2.83;;;13.60;76.20;;;;;;4994818;28;20273;-81
2021/05/29 00:11:32;;;;;;;3.53;2.80;;;13.50;76.60;;;;;;4978950;28;20170;-81
2021/05/29 00:13:58;;;;;;;3.73;2.70;;;13.50;77.20;;;;;;5016986;28;20193;-82
2021/05/29 00:16:23;;;;;;;3.10;2.40;;;13.50;77.40;;;;;;4994565;28;20170;-81
2021/05/29 00:18:49;;;;;;;3.00;2.70;;;13.50;77.90;;;;;;5012450;28;20212;-81
2021/05/29 00:21:15;;;;;;;3.43;2.53;;;13.40;78.50;;;;;;4994824;28;20213;-81
2021/05/29 00:23:41;;;;;;;2.67;2.45;;;13.40;79.10;;;;;;4994788;28;20653;-81
2021/05/29 00:26:07;;;;;;;3.90;2.40;;;13.40;79.40;;;;;;5008583;28;20175;-81
2021/05/29 00:28:35;;;;;;;5.13;2.50;;;13.40;80.00;;;;;;5009376;28;20173;-81
2021/05/29 00:31:01;;;;;;;4.90;2.60;;;13.40;80.30;;;;;;5012161;28;20182;-81
2021/05/29 00:33:26;;;;;;;3.17;2.77;;;13.30;80.80;;;;;;5012215;28;20522;-81
2021/05/29 00:35:53;;;;;;;3.13;2.47;;;13.30;82.20;;;;;;4994693;28;20182;-81
2021/05/29 00:38:18;;;;;;;3.95;2.97;;;13.30;82.00;;;;;;5011652;28;21081;-81
2021/05/29 00:40:44;;;;;;;3.27;2.97;;;13.30;82.50;;;;;;5012024;28;20221;-81
2021/05/29 00:43:10;;;;;;;3.90;2.80;;;13.20;82.80;;;;;;5012169;28;20229;-81
2021/05/29 00:45:36;;;;;;;5.50;3.27;;;13.20;84.00;;;;;;5011884;28;20204;-81
2021/05/29 00:48:02;;;;;;;3.73;3.40;;;13.20;83.60;;;;;;5011824;28;20565;-81
2021/05/29 00:50:31;;;;;;;4.30;1.90;;;13.20;84.20;;;;;;5005036;23;20222;-80
2021/05/29 00:52:57;;;;;;;2.70;2.15;;;13.20;84.70;;;;;;4983713;28;20167;-80
2021/05/29 00:55:23;;;;;;;3.35;2.90;;;13.10;84.90;;;;;;4993241;28;20167;-80
2021/05/29 00:57:51;;;;;;;2.97;2.40;;;13.10;85.40;;;;;;4993765;28;20230;-79
2021/05/29 01:00:19;;;;;;;4.05;2.22;;;13.00;85.90;;;;;;4997866;28;20198;-80
2021/05/29 01:02:46;;;;;;;2.95;2.75;;;13.00;86.50;;;;;;4992184;28;20219;-79
2021/05/29 01:05:15;;;;;;;3.30;2.58;;;13.00;86.90;;;;;;4980497;28;20202;-81
2021/05/29 01:07:41;;;;;;;3.45;2.58;;;13.00;87.40;;;;;;4994513;28;20533;-80
2021/05/29 01:10:08;;;;;;;3.97;2.80;;;12.90;87.70;;;;;;4996152;28;20209;-80
2021/05/29 01:12:34;;;;;;;4.75;2.80;;;12.90;88.30;;;;;;4995242;28;20302;-80
2021/05/29 01:15:01;;;;;;;3.70;2.83;;;12.90;88.80;;;;;;4994652;28;20537;-80
2021/05/29 01:17:28;;;;;;;5.00;3.15;;;12.90;89.30;;;;;;4994104;28;20665;-80
2021/05/29 01:19:55;;;;;;;4.28;3.00;;;12.90;89.90;;;;;;4994819;28;20191;-79
2021/05/29 01:22:43;;;;;;;3.15;2.85;;;12.80;90.00;;;;;;4995908;28;20262;-79
2021/05/29 01:25:26;;;;;;;3.92;2.70;;;12.80;90.80;;;;;;4995475;28;20201;-79
2021/05/29 01:28:25;;;;;;;2.95;2.40;;;12.80;90.80;;;;;;4995930;28;20171;-79
2021/05/29 01:30:59;;;;;;;3.78;2.72;;;12.70;91.00;;;;;;4994618;28;20198;-79
2021/05/29 01:33:31;;;;;;;3.00;2.42;;;12.70;90.80;;;;;;4995646;28;20194;-79
2021/05/29 01:36:06;;;;;;;3.45;2.50;;;12.70;91.00;;;;;;4994758;28;20233;-79
2021/05/29 01:38:33;;;;;;;2.88;2.40;;;12.70;91.70;;;;;;4997873;28;20178;-80
2021/05/29 01:41:03;;;;;;;2.70;2.50;;;12.70;91.50;;;;;;4995626;28;20187;-79
2021/05/29 01:43:29;;;;;;;2.60;2.20;;;12.60;91.80;;;;;;4995452;28;20283;-81
2021/05/29 01:45:55;;;;;;;2.40;2.00;;;12.60;91.90;;;;;;4995607;28;20582;-81
2021/05/29 01:48:21;;;;;;;3.50;2.37;;;12.60;92.30;;;;;;4996358;28;20182;-81
2021/05/29 01:50:48;;;;;;;3.40;2.60;;;12.60;92.60;;;;;;4993886;28;20658;-81
2021/05/29 01:53:19;;;;;;;3.17;2.20;;;12.50;92.70;;;;;;4993812;28;20210;-81
2021/05/29 01:55:46;;;;;;;3.25;2.75;;;12.60;93.00;;;;;;4993990;28;20175;-81
2021/05/29 01:58:13;;;;;;;3.10;2.33;;;12.50;93.00;;;;;;4995024;28;20571;-81
2021/05/29 02:00:39;;;;;;;4.68;2.70;;;12.50;93.30;;;;;;4993894;28;20249;-81
2021/05/29 02:03:05;;;;;;;3.72;2.60;;;12.40;93.50;;;;;;4993868;28;20525;-81
2021/05/29 02:05:33;;;;;;;2.85;2.28;;;12.40;93.80;;;;;;4993750;28;20218;-81
2021/05/29 02:08:01;;;;;;;3.25;2.47;;;12.40;94.00;;;;;;4994732;28;20191;-81
2021/05/29 02:10:29;;;;;;;2.78;2.47;;;12.40;94.30;;;;;;4995011;28;20183;-81
2021/05/29 02:12:57;;;;;;;3.85;3.35;;;12.40;94.40;;;;;;4993689;28;20552;-81
2021/05/29 02:15:33;;;;;;;4.82;2.95;;;12.30;94.60;;;;;;4993638;28;20171;-81
2021/05/29 02:18:02;;;;;;;4.65;2.88;;;12.30;95.00;;;;;;4993578;28;20175;-81
2021/05/29 02:20:43;;;;;;;5.80;2.85;;;12.20;95.10;;;;;;4994695;28;20199;-81
2021/05/29 02:23:15;;;;;;;3.72;3.40;;;12.20;96.00;;;;;;4994181;28;20182;-81
2021/05/29 02:25:41;;;;;;;3.05;2.72;;;12.20;95.60;;;;;;4995462;28;20293;-81
2021/05/29 02:28:07;;;;;;;2.60;2.40;;;12.20;95.80;;;;;;4993164;28;20510;-81
2021/05/29 02:30:34;;;;;;;4.40;3.23;;;12.10;96.00;;;;;;4995271;28;20194;-81
2021/05/29 02:33:01;;;;;;;3.85;3.00;;;12.10;96.20;;;;;;4994881;28;20571;-81
2021/05/29 02:35:27;;;;;;;4.07;3.20;;;12.10;96.50;;;;;;4994597;28;20229;-81
2021/05/29 02:37:52;;;;;;;3.63;2.65;;;12.00;96.60;;;;;;4994571;28;20182;-81
2021/05/29 02:40:18;;;;;;;2.53;2.33;;;12.00;96.90;;;;;;4994546;28;20199;-81
2021/05/29 02:42:44;;;;;;;3.15;2.38;;;12.00;97.20;;;;;;4993230;28;20179;-81
2021/05/29 02:45:11;;;;;;;3.07;2.77;;;12.00;97.40;;;;;;4993086;28;20566;-81
2021/05/29 02:47:37;;;;;;;2.88;2.58;;;12.00;97.60;;;;;;4992595;28;20238;-81
2021/05/29 02:50:04;;;;;;;4.40;2.40;;;12.00;97.90;;;;;;4993019;28;20253;-81
2021/05/29 02:52:29;;;;;;;3.65;3.25;;;12.00;98.10;;;;;;4994159;28;20564;-81
2021/05/29 02:54:55;;;;;;;2.87;2.57;;;11.90;98.20;;;;;;4994320;28;20266;-81
2021/05/29 02:57:21;;;;;;;3.33;2.40;;;11.90;98.40;;;;;;4994062;28;20179;-81
2021/05/29 02:59:47;;;;;;;3.33;3.03;;;11.90;98.70;;;;;;4990938;28;20645;-81
2021/05/29 03:02:12;;;;;;;4.70;2.90;;;11.90;98.90;;;;;;4986026;28;20262;-81
2021/05/29 03:04:38;;;;;;;3.07;2.60;;;11.80;99.00;;;;;;4984072;28;20686;-81
2021/05/29 03:07:05;;;;;;;5.77;3.30;;;11.80;99.30;;;;;;4977679;28;20175;-81
2021/05/29 03:09:32;;;;;;;3.25;2.67;;;11.80;99.70;;;;;;4981527;28;20195;-81
2021/05/29 03:11:58;;;;;;;2.90;2.60;;;11.80;99.80;;;;;;5001526;28;20154;-81
2021/05/29 03:14:24;;;;;;;4.18;2.20;;;11.80;99.90;;;;;;5014537;28;20182;-81
2021/05/29 03:16:50;;;;;;;4.28;2.65;;;11.80;99.90;;;;;;4983974;28;20206;-81
2021/05/29 03:19:17;;;;;;;2.97;2.60;;;11.80;99.90;;;;;;4992045;28;20645;-82
2021/05/29 03:21:44;;;;;;;3.13;2.75;;;11.80;99.90;;;;;;4986834;28;20582;-81
2021/05/29 03:24:11;;;;;;;4.38;3.22;;;11.80;99.90;;;;;;5004962;28;20202;-81
2021/05/29 03:26:37;;;;;;;2.55;2.35;;;11.80;99.90;;;;;;4969347;28;20229;-80
2021/05/29 03:29:04;;;;;;;3.53;2.67;;;11.80;99.90;;;;;;4979196;28;20654;-81
2021/05/29 03:31:30;;;;;;;4.20;2.90;;;11.80;99.90;;;;;;4989737;28;20215;-81
2021/05/29 03:33:56;;;;;;;3.65;3.15;;;11.70;99.90;;;;;;4995519;28;20174;-81
2021/05/29 03:36:22;;;;;;;3.40;3.03;;;11.80;99.90;;;;;;4975318;28;20170;-82
2021/05/29 03:38:48;;;;;;;3.00;2.50;;;11.80;99.90;;;;;;4995561;28;20182;-81
2021/05/29 03:41:13;;;;;;;3.57;2.90;;;11.80;99.90;;;;;;5003264;28;20616;-81
2021/05/29 03:43:39;;;;;;;4.07;3.07;;;11.80;99.90;;;;;;5002828;28;20175;-81
2021/05/29 03:46:05;;;;;;;3.53;2.87;;;11.80;99.90;;;;;;4976235;28;20210;-81
2021/05/29 03:48:34;;;;;;;4.13;3.33;;;11.80;99.90;;;;;;5002252;28;20190;-81
2021/05/29 03:51:01;;;;;;;4.40;3.33;;;11.80;99.90;;;;;;4978887;28;20202;-82
2021/05/29 03:53:27;;;;;;;3.67;3.30;;;11.80;99.90;;;;;;5012585;28;20265;-81
2021/05/29 03:55:55;;;;;;;3.85;3.28;;;11.80;99.90;;;;;;4995215;28;20217;-81
2021/05/29 03:58:21;;;;;;;2.90;2.58;;;11.80;99.90;;;;;;5012404;28;20174;-81
2021/05/29 04:00:47;;;;;;;3.85;3.03;;;11.80;99.90;;;;;;4994876;28;20551;-81
2021/05/29 04:03:13;;;;;;;3.47;2.93;;;11.80;99.90;;;;;;4994853;28;20241;-82
2021/05/29 04:05:40;;;;;;;3.33;3.00;;;11.80;99.90;;;;;;5012580;28;20725;-81
2021/05/29 04:08:06;;;;;;;6.45;3.40;;;11.90;99.90;;;;;;5012066;28;20573;-81
2021/05/29 04:10:33;;;;;;;4.97;3.60;;;11.90;99.90;;;;;;4994635;28;20193;-81
2021/05/29 04:13:00;;;;;;;3.75;3.45;;;11.90;99.90;;;;;;5012435;28;20206;-81
2021/05/29 04:15:27;;;;;;;4.72;3.30;;;11.90;99.90;;;;;;4994877;28;20170;-81
2021/05/29 04:17:53;;;;;;;4.82;3.60;;;12.00;99.90;;;;;;4995176;28;20178;-81
2021/05/29 04:20:22;;;;;;;3.78;3.47;;;12.00;99.90;;;;;;4991201;28;20186;-81
2021/05/29 04:22:48;;;;;;;4.93;3.22;;;12.10;99.90;;;;;;5007498;28;20519;-81
2021/05/29 04:25:16;;;;;;;3.47;3.17;;;12.10;99.90;;;;;;4994495;28;20255;-82
2021/05/29 04:27:43;;;;;;;3.42;3.13;;;12.30;99.90;;;;;;5000054;28;20237;-81
2021/05/29 04:30:12;;;;;;;5.03;3.65;;;12.40;99.90;;;;;;5003759;28;20282;-81
2021/05/29 04:32:38;;;;;;;7.47;4.40;;;12.50;99.90;;;;;;5007876;28;20174;-81
2021/05/29 04:35:06;;;;;;;4.32;3.80;;;12.60;99.90;;;;;;4998225;28;20179;-81
2021/05/29 04:37:32;;;;;;;4.35;3.80;;;12.70;99.90;;;;;;4999711;28;20565;-81
2021/05/29 04:39:57;;;;;;;3.63;3.30;;;12.70;99.90;;;;;;4993667;28;20213;-81
2021/05/29 04:42:23;;;;;;;3.87;3.57;;;12.80;99.90;;;;;;5004366;28;20269;-82
2021/05/29 04:44:49;;;;;;;3.00;2.70;;;12.90;99.90;;;;;;4994338;28;20537;-81
2021/05/29 04:47:15;;;;;;;3.60;3.30;;;13.20;99.90;;;;;;4978961;28;20585;-81
2021/05/29 04:49:40;;;;;;;5.80;3.40;;;13.50;99.90;;;;;;5001425;28;20194;-81
2021/05/29 04:52:07;;;;;;;3.10;2.87;;;13.90;99.90;;;;;;4977144;28;20178;-82
2021/05/29 04:54:33;;;;;;;3.15;2.65;;;14.40;99.90;;;;;;5004115;28;20611;-81
2021/05/29 04:56:59;;;;;;;3.20;2.67;;;14.80;99.90;;;;;;5005161;28;20233;-81
2021/05/29 04:59:25;;;;;;;2.70;2.50;;;15.10;99.90;;;;;;5000187;28;20624;-81
2021/05/29 05:01:51;;;;;;;3.20;2.80;;;15.40;99.90;;;;;;5001759;28;20178;-81
2021/05/29 05:04:16;;;;;;;8.10;3.47;;;15.90;99.90;;;;;;4985758;28;20206;-81
2021/05/29 05:06:43;;;;;;;4.70;2.93;;;16.20;99.90;;;;;;5010212;28;20177;-81
2021/05/29 05:09:09;;;;;;;3.53;3.23;;;16.60;99.90;;;;;;5011740;28;20573;-81
2021/05/29 05:11:35;;;;;;;5.90;4.33;;;16.80;99.90;;;;;;5011704;28;20558;-81
2021/05/29 05:14:05;;;;;;;3.13;2.87;;;17.10;99.90;;;;;;5012625;28;20597;-81
2021/05/29 05:16:31;;;;;;;3.90;3.23;;;17.30;99.90;;;;;;5011891;28;20604;-81
2021/05/29 05:18:57;;;;;;;3.10;2.80;;;17.50;99.90;;;;;;5011483;28;20565;-81
2021/05/29 05:21:23;;;;;;;4.20;3.87;;;17.70;99.90;;;;;;5011698;28;20193;-81
2021/05/29 05:23:52;;;;;;;4.30;3.83;;;17.80;99.90;;;;;;4994134;28;20699;-81
2021/05/29 05:26:18;;;;;;;3.43;3.13;;;18.00;99.90;;;;;;4993824;28;20185;-81
2021/05/29 05:28:44;;;;;;;5.77;3.33;;;18.20;99.90;;;;;;5011463;28;20557;-82
2021/05/29 05:31:11;;;;;;;3.27;2.87;;;18.30;99.90;;;;;;5011764;28;20175;-81
2021/05/29 05:33:41;;;;;;;5.50;2.83;;;18.50;99.90;;;;;;4994664;28;20568;-80
2021/05/29 05:36:08;;;;;;;3.00;2.80;;;18.70;99.90;;;;;;4978053;28;20570;-81
2021/05/29 05:38:38;;;;;;;3.10;2.50;;;18.90;99.90;;;;;;5011119;28;20580;-81
2021/05/29 05:41:05;;;;;;;3.37;3.07;;;19.10;99.90;;;;;;5011360;28;20696;-81
2021/05/29 05:43:31;;;;;;;3.30;2.93;;;19.10;99.90;;;;;;5011529;28;20596;-81
2021/05/29 05:45:57;;;;;;;2.57;2.20;;;19.20;99.90;;;;;;4993771;28;20648;-81
2021/05/29 05:48:23;;;;;;;2.60;2.40;;;19.50;99.90;;;;;;4993842;28;20628;-81
2021/05/29 05:50:54;;;;;;;4.40;1.80;;;20.00;99.90;;;;;;4996074;28;20233;-81
2021/05/29 05:53:21;;;;;;;2.70;2.23;;;20.80;99.90;;;;;;4997612;28;20569;-81
2021/05/29 05:55:56;;;;;;;2.17;1.73;;;21.70;99.90;;;;;;5014957;28;21131;-82
2021/05/29 05:58:22;;;;;;;3.93;1.93;;;22.70;99.90;;;;;;5014815;28;20569;-82
2021/05/29 06:00:47;;;;;;;2.93;2.03;;;23.90;99.90;;;;;;4997387;28;20612;-82
2021/05/29 06:03:13;;;;;;;3.13;2.23;;;24.90;99.90;;;;;;5014902;28;20225;-82
2021/05/29 06:05:39;;;;;;;1.80;1.70;;;25.80;99.80;;;;;;5014749;28;20206;-82
2021/05/29 06:08:05;;;;;;;1.93;1.30;;;26.80;98.30;;;;;;5014534;28;20174;-82
2021/05/29 06:10:31;;;;;;;1.80;1.47;;;27.50;96.50;;;;;;4997396;28;20197;-82
2021/05/29 06:12:56;;;;;;;3.23;1.67;;;28.40;95.10;;;;;;5014965;28;20694;-80
2021/05/29 06:21:11;;;;;;;1.70;1.23;;;30.30;89.60;;;;;;4915461;29;20618;-80
2021/05/29 06:23:37;;;;;;;2.00;1.30;;;30.90;86.30;;;;;;4915636;29;20586;-80
2021/05/29 06:26:03;;;;;;;1.60;1.50;;;31.30;81.90;;;;;;4961855;28;20688;-80
2021/05/29 06:28:29;;;;;;;2.13;1.50;;;31.70;78.90;;;;;;5017648;28;20573;-80
2021/05/29 06:30:55;;;;;;;3.70;1.40;;;32.20;75.90;;;;;;4998083;28;21161;-79
2021/05/29 06:33:20;;;;;;;3.30;1.30;;;32.50;72.90;;;;;;5014497;28;20176;-79
2021/05/29 06:35:46;;;;;;;1.70;1.43;;;32.80;70.30;;;;;;4997024;28;20575;-78
2021/05/29 06:38:12;;;;;;;3.53;1.30;;;32.80;67.40;;;;;;5013894;28;20180;-79
2021/05/29 06:40:37;;;;;;;1.93;1.30;;;32.90;65.00;;;;;;5014399;28;20201;-79
2021/05/29 06:43:03;;;;;;;2.93;1.00;;;32.60;60.20;;;;;;4996299;28;20268;-81
2021/05/29 06:45:31;;;;;;;2.00;1.33;;;32.40;60.30;;;;;;5014103;28;20201;-79
2021/05/29 06:47:58;;;;;;;1.80;1.03;;;32.60;58.80;;;;;;4996206;28;20549;-79
2021/05/29 06:50:24;;;;;;;1.67;1.17;;;32.80;58.80;;;;;;5011484;22;20617;-80
2021/05/29 06:52:52;;;;;;;3.20;1.60;;;33.00;58.50;;;;;;5004697;28;20597;-80
2021/05/29 07:00:47;;;;;;;1.83;1.20;;;34.00;56.90;;;;;;5005183;28;20608;-80
2021/05/29 07:03:13;;;;;;;1.60;1.10;;;34.40;56.20;;;;;;5008150;28;20599;-80
2021/05/29 07:05:38;;;;;;;1.40;1.10;;;34.60;55.40;;;;;;4991585;28;20343;-80
2021/05/29 07:08:04;;;;;;;2.43;1.10;;;35.00;54.80;;;;;;5008333;28;20193;-80
2021/05/29 07:10:31;;;;;;;3.00;1.37;;;35.50;53.80;;;;;;5023153;28;20195;-80
2021/05/29 07:12:56;;;;;;;1.90;1.10;;;35.70;53.20;;;;;;5006015;28;20569;-80
2021/05/29 07:15:27;;;;;;;1.57;1.20;;;36.10;52.30;;;;;;5007290;28;20593;-80
2021/05/29 07:17:55;;;;;;;2.53;1.50;;;36.30;51.40;;;;;;5022004;28;20546;-80
2021/05/29 07:20:21;;;;;;;2.00;1.10;;;36.50;50.00;;;;;;5005615;28;20669;-80
2021/05/29 07:22:47;;;;;;;2.00;1.20;;;36.70;49.40;;;;;;5003149;28;20613;-81
2021/05/29 07:25:13;;;;;;;1.50;1.20;;;37.00;49.00;;;;;;5003461;28;20209;-80
2021/05/29 07:27:39;;;;;;;2.50;1.30;;;37.20;48.80;;;;;;5019702;28;20261;-80
2021/05/29 07:30:07;;;;;;;2.73;1.40;;;37.40;48.20;;;;;;4985459;28;20589;-80
2021/05/29 07:32:36;;;;;;;1.70;1.03;;;37.70;47.30;;;;;;5003308;28;20585;-80
2021/05/29 07:35:03;;;;;;;2.43;1.20;;;37.80;46.70;;;;;;4998583;28;20579;-81
2021/05/29 07:37:29;;;;;;;2.17;1.20;;;38.00;45.80;;;;;;4981866;28;20631;-81
2021/05/29 07:39:55;;;;;;;4.33;1.60;;;38.20;45.50;;;;;;5021095;28;20629;-79
2021/05/29 07:42:21;;;;;;;2.10;1.40;;;38.30;44.60;;;;;;5018363;28;20221;-80
2021/05/29 07:44:48;;;;;;;1.50;1.30;;;38.40;43.90;;;;;;5018761;28;20260;-80
2021/05/29 07:47:13;;;;;;;1.60;1.40;;;38.40;43.90;;;;;;5001277;28;20177;-80
2021/05/29 07:49:39;;;;;;;2.93;1.40;;;38.50;43.40;;;;;;5000925;28;20561;-81
2021/05/29 07:52:05;;;;;;;2.53;1.33;;;38.60;43.00;;;;;;5018521;28;20197;-80
2021/05/29 07:54:31;;;;;;;1.50;1.07;;;38.60;42.40;;;;;;5004633;28;20619;-80
2021/05/29 07:56:58;;;;;;;2.10;1.27;;;38.60;42.30;;;;;;5001916;28;20703;-79
2021/05/29 07:59:24;;;;;;;1.57;1.20;;;38.70;42.10;;;;;;4998194;28;20213;-79
2021/05/29 08:01:50;;;;;;;1.50;1.20;;;38.80;41.70;;;;;;4999057;28;20610;-80
2021/05/29 08:04:17;;;;;;;2.83;1.33;;;38.80;41.00;;;;;;4999760;28;20613;-80
2021/05/29 08:06:44;;;;;;;1.83;1.30;;;38.80;41.00;;;;;;4999693;28;20213;-80
2021/05/29 08:09:09;;;;;;;1.40;1.00;;;38.90;41.10;;;;;;5016472;28;20558;-79
2021/05/29 08:11:37;;;;;;;3.57;1.10;;;39.10;40.60;;;;;;5016190;28;20639;-79
2021/05/29 08:14:05;;;;;;;2.20;1.50;;;39.20;40.30;;;;;;5015678;28;20502;-79
2021/05/29 08:16:31;;;;;;;1.57;1.00;;;39.30;40.50;;;;;;5020360;28;20557;-79
2021/05/29 08:18:57;;;;;;;2.20;1.20;;;39.40;39.80;;;;;;5014661;28;20564;-79
2021/05/29 08:21:23;;;;;;;2.30;1.20;;;39.40;38.80;;;;;;4997142;28;20202;-80
2021/05/29 08:23:49;;;;;;;2.17;1.10;;;39.50;38.80;;;;;;5013368;28;20170;-79
2021/05/29 08:26:16;;;;;;;4.40;1.10;;;39.50;37.50;;;;;;4995581;28;20212;-80
2021/05/29 08:28:45;;;;;;;1.30;0.90;;;39.40;37.40;;;;;;5016542;28;20566;-80
2021/05/29 08:31:12;;;;;;;2.43;1.10;;;39.40;37.50;;;;;;5015938;28;20640;-79
2021/05/29 08:33:39;;;;;;;3.77;1.47;;;39.40;37.00;;;;;;4999646;28;20561;-79
2021/05/29 08:36:06;;;;;;;1.60;1.20;;;39.30;36.90;;;;;;4983760;28;20577;-79
2021/05/29 08:38:32;;;;;;;1.30;0.80;;;39.20;36.80;;;;;;5015244;28;20999;-79
2021/05/29 08:40:59;;;;;;;4.30;1.20;;;39.30;36.90;;;;;;4997453;28;20948;-79
2021/05/29 08:43:25;;;;;;;1.60;1.17;;;39.30;36.50;;;;;;4998918;28;20620;-80
2021/05/29 08:45:50;;;;;;;1.50;0.90;;;39.30;36.30;;;;;;5016126;28;20619;-79
2021/05/29 08:48:17;;;;;;;1.30;0.70;;;39.40;36.20;;;;;;5014778;28;21027;-79
2021/05/29 08:53:27;;;;;;;2.37;0.70;;;39.30;35.10;;;;;;5018162;28;20566;-79
2021/05/29 08:55:54;;;;;;;1.37;0.73;;;39.40;35.40;;;;;;4996654;28;20650;-79
2021/05/29 08:58:19;;;;;;;1.10;0.50;;;39.50;35.10;;;;;;5013324;28;20588;-79
2021/05/29 09:00:45;;;;;;;1.40;0.60;;;39.50;34.90;;;;;;5013476;28;20613;-79
2021/05/29 09:03:11;;;;;;;1.70;0.70;;;39.50;34.60;;;;;;5014043;28;20201;-80
2021/05/29 09:05:51;;;;;;;1.63;0.80;;;39.50;34.10;;;;;;4981302;28;20224;-80
2021/05/29 09:08:21;;;;;;;1.20;0.70;;;39.50;34.00;;;;;;4996373;28;20910;-80
2021/05/29 09:10:53;;;;;;;1.30;0.60;;;39.50;34.10;;;;;;4979095;28;21203;-79
2021/05/29 09:13:26;;;;;;;1.60;0.70;;;39.60;33.80;;;;;;5012587;28;20658;-79
2021/05/29 09:16:03;;;;;;;1.80;0.90;;;39.60;33.80;;;;;;4995694;28;20558;-80
2021/05/29 09:18:40;;;;;;;1.20;0.67;;;39.60;32.90;;;;;;5013262;28;20573;-80
2021/05/29 09:21:31;;;;;;;2.03;0.70;;;39.70;33.50;;;;;;4979290;28;20623;-80
2021/05/29 09:24:24;;;;;;;1.33;0.80;;;39.60;33.70;;;;;;4995708;28;20569;-79
2021/05/29 09:26:53;;;;;;;2.33;1.00;;;39.60;33.70;;;;;;5012887;28;20612;-79
2021/05/29 09:29:30;;;;;;;2.03;0.80;;;39.60;33.30;;;;;;4998683;28;20650;-80
2021/05/29 09:31:58;;;;;;;1.80;0.90;;;39.10;32.70;;;;;;5003405;28;20959;-79
2021/05/29 09:34:47;;;;;;;1.23;0.70;;;38.70;33.10;;;;;;4982413;28;21112;-80
2021/05/29 09:37:14;;;;;;;1.57;1.00;;;38.50;33.70;;;;;;5016920;28;20672;-79
2021/05/29 09:39:43;;;;;;;3.10;1.00;;;38.60;34.00;;;;;;4998743;28;20623;-79
2021/05/29 09:42:10;;;;;;;2.00;0.80;;;38.60;33.30;;;;;;4981836;28;20601;-79
2021/05/29 09:44:37;;;;;;;2.80;0.93;;;38.70;33.20;;;;;;4981560;28;20617;-79
2021/05/29 09:47:05;;;;;;;1.87;0.70;;;38.70;33.20;;;;;;5015459;28;20895;-79
2021/05/29 09:49:48;;;;;;;5.03;0.87;;;38.70;33.00;;;;;;5016099;28;20624;-80
2021/05/29 09:52:27;;;;;;;2.70;0.70;;;38.80;32.50;;;;;;5017209;28;20612;-80
2021/05/29 09:54:55;;;;;;;1.10;0.63;;;38.70;33.10;;;;;;4999863;28;21222;-80
2021/05/29 09:57:21;;;;;;;1.93;0.90;;;38.60;33.00;;;;;;5017240;28;20568;-81
2021/05/29 09:59:57;;;;;;;1.30;0.60;;;38.50;32.80;;;;;;5000680;28;20573;-80
2021/05/29 10:02:24;;;;;;;1.53;0.80;;;38.10;32.50;;;;;;4999472;28;20276;-79
2021/05/29 10:04:54;;;;;;;1.20;0.70;;;37.80;32.20;;;;;;4998529;28;20612;-79
2021/05/29 10:07:21;;;;;;;1.40;0.60;;;37.50;32.70;;;;;;4999112;28;20612;-79
2021/05/29 10:09:48;;;;;;;1.20;0.70;;;37.20;32.60;;;;;;4985793;28;20577;-79
2021/05/29 10:12:13;;;;;;;2.23;0.70;;;36.50;31.90;;;;;;4999682;28;20611;-79
2021/05/29 10:14:40;;;;;;;2.07;0.83;;;35.70;31.80;;;;;;5000395;28;20654;-79
2021/05/29 10:17:11;;;;;;;1.60;0.80;;;34.90;32.00;;;;;;4969507;28;20174;-79
2021/05/29 10:19:40;;;;;;;1.50;0.70;;;34.00;32.50;;;;;;4994547;28;20595;-79
2021/05/29 10:22:10;;;;;;;1.30;0.73;;;33.50;33.80;;;;;;5010245;28;21227;-79
2021/05/29 10:24:37;;;;;;;2.10;0.77;;;33.40;34.60;;;;;;4996674;28;20720;-79
2021/05/29 10:27:09;;;;;;;1.30;0.73;;;33.50;35.10;;;;;;4995712;28;20583;-78
2021/05/29 10:29:36;;;;;;;2.30;0.80;;;33.70;35.00;;;;;;5026856;28;20946;-79
2021/05/29 10:32:13;;;;;;;1.63;1.07;;;33.70;35.10;;;;;;4997869;28;20670;-79
2021/05/29 10:35:09;;;;;;;1.20;0.80;;;33.70;35.00;;;;;;5013361;28;20592;-79
2021/05/29 10:37:41;;;;;;;1.93;0.77;;;33.90;36.00;;;;;;5007980;28;20650;-79
2021/05/29 10:40:27;;;;;;;1.40;0.97;;;34.00;35.20;;;;;;5001852;28;20569;-79
2021/05/29 10:43:19;;;;;;;1.50;0.70;;;33.70;35.30;;;;;;4997156;28;20585;-79
2021/05/29 10:45:51;;;;;;;2.77;1.00;;;33.40;35.00;;;;;;5000680;28;20652;-78
2021/05/29 10:48:27;;;;;;;1.43;0.90;;;33.00;34.70;;;;;;4982677;28;20592;-78
2021/05/29 10:51:09;;;;;;;1.40;0.80;;;32.70;35.50;;;;;;5016169;28;20608;-79
2021/05/29 10:53:56;;;;;;;2.17;0.80;;;32.60;35.60;;;;;;4998749;28;20636;-79
2021/05/29 10:56:24;;;;;;;1.73;0.90;;;32.50;35.90;;;;;;5014300;28;20663;-79
2021/05/29 10:59:12;;;;;;;1.70;0.90;;;32.50;36.40;;;;;;4997059;28;20684;-80
2021/05/29 11:01:40;;;;;;;1.90;0.80;;;32.60;36.50;;;;;;4982126;28;20598;-80
2021/05/29 11:04:12;;;;;;;1.73;0.90;;;32.80;36.90;;;;;;4982699;28;20627;-80
2021/05/29 11:06:40;;;;;;;1.20;0.80;;;32.60;36.20;;;;;;4998992;28;20564;-79
2021/05/29 11:09:06;;;;;;;1.87;0.90;;;32.40;36.20;;;;;;4999607;28;20637;-80
2021/05/29 11:14:11;;;;;;;1.40;0.90;;;32.00;36.10;;;;;;4981243;28;20583;-80
2021/05/29 11:16:46;;;;;;;2.73;0.80;;;31.80;36.60;;;;;;4997890;28;20592;-80
2021/05/29 11:19:22;;;;;;;1.40;0.80;;;31.40;36.10;;;;;;4980865;28;21147;-80
2021/05/29 11:22:12;;;;;;;1.40;0.80;;;31.10;36.10;;;;;;4984832;28;20605;-80
2021/05/29 11:24:54;;;;;;;1.50;0.80;;;30.90;36.50;;;;;;4998434;28;20569;-80
2021/05/29 11:27:23;;;;;;;1.30;0.70;;;30.90;37.40;;;;;;4997971;28;20665;-80
2021/05/29 11:29:57;;;;;;;1.50;1.00;;;31.10;37.80;;;;;;5014694;28;20569;-80
2021/05/29 11:35:23;;;;;;;1.57;1.10;;;31.30;37.60;;;;;;4981913;28;20639;-79
2021/05/29 11:37:55;;;;;;;2.70;1.33;;;31.40;37.50;;;;;;5015522;28;20565;-80
2021/05/29 11:40:21;;;;;;;1.50;1.00;;;31.40;37.50;;;;;;4997361;28;20673;-80
2021/05/29 11:42:51;;;;;;;1.70;1.00;;;31.40;37.50;;;;;;4980696;28;20596;-80
2021/05/29 11:45:18;;;;;;;1.90;1.00;;;31.60;37.60;;;;;;4997670;28;20673;-80
2021/05/29 11:47:45;;;;;;;1.87;0.80;;;31.60;37.30;;;;;;4996071;28;21018;-80
2021/05/29 11:50:17;;;;;;;2.77;0.80;;;31.60;37.30;;;;;;4995765;28;20573;-80
2021/05/29 11:52:45;;;;;;;2.43;1.10;;;31.50;37.70;;;;;;4996004;28;20576;-79
2021/05/29 11:55:12;;;;;;;6.30;1.00;;;31.50;37.40;;;;;;4979419;28;20661;-80
2021/05/29 11:57:59;;;;;;;1.77;1.00;;;31.50;37.90;;;;;;4979537;28;20580;-80
2021/05/29 12:00:25;;;;;;;1.60;0.90;;;31.30;37.10;;;;;;4984612;28;20601;-80
2021/05/29 12:02:52;;;;;;;1.67;0.93;;;31.00;36.50;;;;;;4979829;28;20597;-80
2021/05/29 12:05:19;;;;;;;2.40;1.03;;;30.70;36.20;;;;;;4963724;28;20575;-80
2021/05/29 12:08:02;;;;;;;2.57;1.17;;;30.20;36.00;;;;;;5012799;28;20605;-80
2021/05/29 12:10:51;;;;;;;1.40;0.90;;;29.80;36.50;;;;;;4979369;28;20601;-80
2021/05/29 12:13:27;;;;;;;1.30;0.90;;;29.60;36.80;;;;;;5014359;28;20612;-80
2021/05/29 12:15:55;;;;;;;2.17;1.37;;;29.50;37.70;;;;;;4987697;28;21005;-79
2021/05/29 12:18:21;;;;;;;1.73;1.00;;;29.50;38.00;;;;;;5000714;28;20574;-80
2021/05/29 12:20:58;;;;;;;2.47;1.20;;;29.40;37.80;;;;;;4995227;28;20650;-80
2021/05/29 12:23:24;;;;;;;2.13;1.63;;;29.30;37.80;;;;;;4995615;28;20565;-80
2021/05/29 12:25:50;;;;;;;5.17;1.50;;;29.20;38.30;;;;;;4999279;28;20680;-80
2021/05/29 12:28:31;;;;;;;1.40;1.10;;;29.20;38.40;;;;;;5152455;27;20893;-81
2021/05/29 12:30:57;;;;;;;2.23;1.30;;;29.10;38.60;;;;;;5135057;27;21173;-80
2021/05/29 12:33:24;;;;;;;2.13;1.17;;;29.00;38.90;;;;;;5152425;27;20555;-81
2021/05/29 12:36:07;;;;;;;1.70;1.30;;;29.00;38.80;;;;;;5152730;27;20161;-81
2021/05/29 12:38:33;;;;;;;2.53;1.33;;;28.90;39.00;;;;;;5151529;27;20575;-81
2021/05/29 12:41:11;;;;;;;1.80;1.37;;;28.80;38.70;;;;;;5150188;27;20586;-81
2021/05/29 12:43:38;;;;;;;2.10;1.70;;;28.50;38.40;;;;;;5133670;27;20599;-80
2021/05/29 12:46:05;;;;;;;1.90;1.40;;;28.20;38.50;;;;;;5149512;27;20628;-81
2021/05/29 12:48:31;;;;;;;1.47;1.37;;;27.90;38.30;;;;;;5149686;27;20567;-80
2021/05/29 12:53:35;;;;;;;2.23;1.90;;;27.40;38.90;;;;;;5132593;27;20941;-79
2021/05/29 12:56:07;;;;;;;1.67;1.37;;;27.20;38.90;;;;;;5149082;27;20567;-78
2021/05/29 12:58:35;;;;;;;3.17;2.17;;;26.90;39.20;;;;;;5131652;27;20663;-79
2021/05/29 13:09:44;;;;;;;3.03;2.13;;;25.90;40.20;;;;;;5150418;27;20560;-79
2021/05/29 13:12:20;;;;;;;3.53;2.27;;;25.70;40.50;;;;;;5131700;27;20685;-78
2021/05/29 13:14:48;;;;;;;3.17;2.53;;;25.60;40.60;;;;;;5154790;27;20590;-79
2021/05/29 13:17:31;;;;;;;2.87;2.13;;;25.50;40.70;;;;;;5131353;27;20583;-79
2021/05/29 13:20:05;;;;;;;2.40;2.20;;;25.30;41.00;;;;;;5149553;27;20639;-79
2021/05/29 13:22:40;;;;;;;3.30;3.00;;;25.20;40.70;;;;;;5148643;27;20563;-79
2021/05/29 13:25:10;;;;;;;2.03;1.70;;;25.10;40.80;;;;;;5148748;27;20570;-79
2021/05/29 13:27:52;;;;;;;2.60;2.40;;;25.00;41.10;;;;;;5130754;27;20639;-79